createdAt,value
2022-12-25T00:00:48.178Z,1003.58
2022-12-25T00:01:48.093Z,1003.69
2022-12-25T00:02:48.129Z,1003.67
2022-12-25T00:03:48.172Z,1003.65
2022-12-25T00:04:48.068Z,1003.64
2022-12-25T00:05:48.036Z,1003.62
2022-12-25T00:06:48.087Z,1003.63
2022-12-25T00:07:48.022Z,1003.66
2022-12-25T00:08:48.011Z,1003.69
2022-12-25T00:09:48.002Z,1003.70
2022-12-25T00:10:47.997Z,1003.65
2022-12-25T00:11:47.996Z,1003.63
2022-12-25T00:12:47.975Z,1003.59
2022-12-25T00:13:47.977Z,1003.60
2022-12-25T00:14:47.973Z,1003.66
2022-12-25T00:15:47.979Z,1003.69
2022-12-25T00:16:48.062Z,1003.67
2022-12-25T00:17:47.908Z,1003.68
2022-12-25T00:18:47.920Z,1003.63
2022-12-25T00:19:47.904Z,1003.63
2022-12-25T00:20:47.904Z,1003.65
2022-12-25T00:21:47.884Z,1003.64
2022-12-25T00:22:47.899Z,1003.57
2022-12-25T00:23:47.866Z,1003.54
2022-12-25T00:24:47.872Z,1003.57
2022-12-25T00:25:47.829Z,1003.55
2022-12-25T00:26:47.826Z,1003.59
2022-12-25T00:27:47.831Z,1003.54
2022-12-25T00:28:47.826Z,1003.53
2022-12-25T00:29:47.809Z,1003.51
2022-12-25T00:30:47.793Z,1003.50
2022-12-25T00:31:47.891Z,1003.47
2022-12-25T00:32:47.780Z,1003.48
2022-12-25T00:33:47.774Z,1003.42
2022-12-25T00:34:47.780Z,1003.40
2022-12-25T00:35:47.730Z,1003.40
2022-12-25T00:36:47.749Z,1003.43
2022-12-25T00:37:47.732Z,1003.41
2022-12-25T00:38:47.773Z,1003.41
2022-12-25T00:39:47.697Z,1003.38
2022-12-25T00:40:47.689Z,1003.39
2022-12-25T00:41:47.680Z,1003.42
2022-12-25T00:42:47.685Z,1003.37
2022-12-25T00:43:47.683Z,1003.35
2022-12-25T00:44:47.679Z,1003.37
2022-12-25T00:45:47.709Z,1003.33
2022-12-25T00:46:47.704Z,1003.31
2022-12-25T00:47:47.614Z,1003.34
2022-12-25T00:48:47.634Z,1003.40
2022-12-25T00:49:47.649Z,1003.39
2022-12-25T00:50:47.599Z,1003.41
2022-12-25T00:51:47.579Z,1003.41
2022-12-25T00:52:47.599Z,1003.41
2022-12-25T00:53:47.539Z,1003.43
2022-12-25T00:54:47.575Z,1003.41
2022-12-25T00:55:47.524Z,1003.35
2022-12-25T00:56:47.538Z,1003.41
2022-12-25T00:57:47.545Z,1003.44
2022-12-25T00:58:47.499Z,1003.46
2022-12-25T00:59:47.476Z,1003.47
2022-12-25T01:00:47.537Z,1003.51
2022-12-25T01:01:47.652Z,1003.55
2022-12-25T01:02:47.589Z,1003.53
2022-12-25T01:03:47.460Z,1003.54
2022-12-25T01:04:47.452Z,1003.53
2022-12-25T01:05:47.470Z,1003.53
2022-12-25T01:06:47.434Z,1003.53
2022-12-25T01:07:47.413Z,1003.50
2022-12-25T01:08:47.415Z,1003.48
2022-12-25T01:09:47.367Z,1003.48
2022-12-25T01:10:47.426Z,1003.47
2022-12-25T01:11:47.381Z,1003.48
2022-12-25T01:12:47.360Z,1003.47
2022-12-25T01:13:47.337Z,1003.47
2022-12-25T01:14:47.357Z,1003.46
2022-12-25T01:15:47.357Z,1003.50
2022-12-25T01:16:47.446Z,1003.51
2022-12-25T01:17:47.313Z,1003.55
2022-12-25T01:18:47.315Z,1003.51
2022-12-25T01:19:47.271Z,1003.55
2022-12-25T01:20:47.283Z,1003.58
2022-12-25T01:21:47.276Z,1003.55
2022-12-25T01:22:47.267Z,1003.52
2022-12-25T01:23:47.229Z,1003.49
2022-12-25T01:24:47.238Z,1003.52
2022-12-25T01:25:47.261Z,1003.51
2022-12-25T01:26:47.242Z,1003.53
2022-12-25T01:27:47.208Z,1003.56
2022-12-25T01:28:47.233Z,1003.55
2022-12-25T01:29:47.198Z,1003.59
2022-12-25T01:30:47.167Z,1003.59
2022-12-25T01:31:47.232Z,1003.58
2022-12-25T01:32:47.164Z,1003.61
2022-12-25T01:33:47.148Z,1003.63
2022-12-25T01:34:50.606Z,1003.66
2022-12-25T01:35:48.147Z,1003.71
2022-12-25T01:36:47.156Z,1003.68
2022-12-25T01:37:47.101Z,1003.72
2022-12-25T01:38:47.106Z,1003.68
2022-12-25T01:39:47.113Z,1003.75
2022-12-25T01:40:47.076Z,1003.76
2022-12-25T01:41:47.065Z,1003.78
2022-12-25T01:42:47.094Z,1003.76
2022-12-25T01:43:47.036Z,1003.81
2022-12-25T01:44:47.047Z,1003.81
2022-12-25T01:45:47.075Z,1003.80
2022-12-25T01:46:47.024Z,1003.82
2022-12-25T01:47:47.053Z,1003.80
2022-12-25T01:48:46.989Z,1003.80
2022-12-25T01:49:47.010Z,1003.76
2022-12-25T01:50:47.002Z,1003.77
2022-12-25T01:51:46.992Z,1003.71
2022-12-25T01:52:46.943Z,1003.70
2022-12-25T01:53:46.957Z,1003.71
2022-12-25T01:54:46.933Z,1003.68
2022-12-25T01:55:46.938Z,1003.67
2022-12-25T01:56:46.893Z,1003.69
2022-12-25T01:57:46.925Z,1003.71
2022-12-25T01:58:47.066Z,1003.73
2022-12-25T01:59:46.888Z,1003.76
2022-12-25T02:00:46.881Z,1003.74
2022-12-25T02:01:47.016Z,1003.74
2022-12-25T02:02:46.921Z,1003.72
2022-12-25T02:03:46.866Z,1003.70
2022-12-25T02:04:46.832Z,1003.68
2022-12-25T02:05:46.838Z,1003.68
2022-12-25T02:06:46.816Z,1003.65
2022-12-25T02:07:46.793Z,1003.71
2022-12-25T02:08:46.818Z,1003.67
2022-12-25T02:09:46.783Z,1003.66
2022-12-25T02:10:46.767Z,1003.69
2022-12-25T02:11:46.770Z,1003.68
2022-12-25T02:12:46.723Z,1003.67
2022-12-25T02:13:46.787Z,1003.67
2022-12-25T02:14:46.717Z,1003.73
2022-12-25T02:15:46.732Z,1003.74
2022-12-25T02:16:58.347Z,1003.74
2022-12-25T02:17:47.724Z,1003.79
2022-12-25T02:18:46.672Z,1003.76
2022-12-25T02:19:46.732Z,1003.74
2022-12-25T02:20:46.666Z,1003.75
2022-12-25T02:21:46.662Z,1003.72
2022-12-25T02:22:46.655Z,1003.73
2022-12-25T02:23:46.643Z,1003.72
2022-12-25T02:24:46.635Z,1003.68
2022-12-25T02:25:46.628Z,1003.68
2022-12-25T02:26:46.600Z,1003.65
2022-12-25T02:27:46.602Z,1003.66
2022-12-25T02:28:46.594Z,1003.61
2022-12-25T02:29:46.577Z,1003.61
2022-12-25T02:30:46.559Z,1003.62
2022-12-25T02:31:46.647Z,1003.58
2022-12-25T02:32:46.522Z,1003.55
2022-12-25T02:33:46.524Z,1003.53
2022-12-25T02:34:46.508Z,1003.51
2022-12-25T02:35:46.531Z,1003.46
2022-12-25T02:36:46.499Z,1003.39
2022-12-25T02:37:46.522Z,1003.36
2022-12-25T02:38:46.489Z,1003.32
2022-12-25T02:39:46.500Z,1003.27
2022-12-25T02:40:46.624Z,1003.25
2022-12-25T02:41:46.458Z,1003.25
2022-12-25T02:42:46.459Z,1003.25
2022-12-25T02:43:46.440Z,1003.27
2022-12-25T02:44:46.414Z,1003.25
2022-12-25T02:45:46.540Z,1003.28
2022-12-25T02:46:46.416Z,1003.27
2022-12-25T02:47:46.390Z,1003.22
2022-12-25T02:48:46.371Z,1003.19
2022-12-25T02:49:46.377Z,1003.14
2022-12-25T02:50:46.375Z,1003.15
2022-12-25T02:51:46.407Z,1003.14
2022-12-25T02:52:46.347Z,1003.21
2022-12-25T02:53:46.355Z,1003.20
2022-12-25T02:54:46.312Z,1003.20
2022-12-25T02:55:46.313Z,1003.14
2022-12-25T02:56:46.307Z,1003.13
2022-12-25T02:57:46.299Z,1003.12
2022-12-25T02:58:46.508Z,1003.11
2022-12-25T02:59:46.288Z,1003.12
2022-12-25T03:00:46.248Z,1003.15
2022-12-25T03:01:46.367Z,1003.18
2022-12-25T03:02:46.241Z,1003.15
2022-12-25T03:03:46.269Z,1003.18
2022-12-25T03:04:46.244Z,1003.17
2022-12-25T03:05:46.218Z,1003.19
2022-12-25T03:06:46.189Z,1003.22
2022-12-25T03:07:46.209Z,1003.21
2022-12-25T03:08:46.192Z,1003.21
2022-12-25T03:09:46.185Z,1003.23
2022-12-25T03:10:46.181Z,1003.18
2022-12-25T03:11:46.171Z,1003.18
2022-12-25T03:12:46.154Z,1003.20
2022-12-25T03:13:46.128Z,1003.18
2022-12-25T03:14:46.107Z,1003.19
2022-12-25T03:15:46.120Z,1003.19
2022-12-25T03:16:46.337Z,1003.17
2022-12-25T03:17:46.125Z,1003.18
2022-12-25T03:18:46.058Z,1003.19
2022-12-25T03:19:46.068Z,1003.24
2022-12-25T03:20:46.063Z,1003.20
2022-12-25T03:21:46.042Z,1003.18
2022-12-25T03:22:46.040Z,1003.13
2022-12-25T03:23:46.013Z,1003.19
2022-12-25T03:24:46.017Z,1003.19
2022-12-25T03:25:46.009Z,1003.22
2022-12-25T03:26:45.994Z,1003.24
2022-12-25T03:27:45.974Z,1003.21
2022-12-25T03:28:45.984Z,1003.18
2022-12-25T03:29:46.037Z,1003.22
2022-12-25T03:30:45.970Z,1003.22
2022-12-25T03:31:45.931Z,1003.22
2022-12-25T03:32:45.938Z,1003.21
2022-12-25T03:33:46.165Z,1003.25
2022-12-25T03:34:45.891Z,1003.23
2022-12-25T03:35:45.919Z,1003.20
2022-12-25T03:36:45.877Z,1003.17
2022-12-25T03:37:45.878Z,1003.19
2022-12-25T03:38:45.862Z,1003.19
2022-12-25T03:39:45.891Z,1003.18
2022-12-25T03:40:45.848Z,1003.24
2022-12-25T03:41:45.854Z,1003.21
2022-12-25T03:42:45.831Z,1003.23
2022-12-25T03:43:45.844Z,1003.24
2022-12-25T03:44:45.807Z,1003.24
2022-12-25T03:45:45.839Z,1003.21
2022-12-25T03:46:45.782Z,1003.20
2022-12-25T03:47:45.792Z,1003.17
2022-12-25T03:48:45.763Z,1003.24
2022-12-25T03:49:45.797Z,1003.19
2022-12-25T03:50:45.752Z,1003.21
2022-12-25T03:51:45.763Z,1003.21
2022-12-25T03:52:45.725Z,1003.20
2022-12-25T03:53:45.723Z,1003.22
2022-12-25T03:54:45.701Z,1003.19
2022-12-25T03:55:45.726Z,1003.20
2022-12-25T03:56:45.684Z,1003.19
2022-12-25T03:57:45.694Z,1003.18
2022-12-25T03:58:45.672Z,1003.18
2022-12-25T03:59:45.684Z,1003.13
2022-12-25T04:00:45.683Z,1003.17
2022-12-25T04:01:45.785Z,1003.18
2022-12-25T04:02:45.709Z,1003.20
2022-12-25T04:03:45.701Z,1003.18
2022-12-25T04:04:45.620Z,1003.14
2022-12-25T04:05:45.617Z,1003.19
2022-12-25T04:06:45.576Z,1003.19
2022-12-25T04:07:45.597Z,1003.17
2022-12-25T04:08:45.571Z,1003.12
2022-12-25T04:09:45.577Z,1003.14
2022-12-25T04:10:45.575Z,1003.12
2022-12-25T04:11:45.554Z,1003.11
2022-12-25T04:12:45.560Z,1003.06
2022-12-25T04:13:45.539Z,1003.11
2022-12-25T04:14:45.527Z,1003.14
2022-12-25T04:15:45.623Z,1003.13
2022-12-25T04:16:45.523Z,1003.10
2022-12-25T04:17:45.499Z,1003.09
2022-12-25T04:18:45.462Z,1003.09
2022-12-25T04:19:45.449Z,1003.03
2022-12-25T04:20:45.498Z,1003.00
2022-12-25T04:21:45.467Z,1002.99
2022-12-25T04:22:45.435Z,1002.98
2022-12-25T04:23:45.417Z,1003.04
2022-12-25T04:24:45.409Z,1003.01
2022-12-25T04:25:45.398Z,1002.98
2022-12-25T04:26:45.428Z,1002.98
2022-12-25T04:27:45.391Z,1003.01
2022-12-25T04:28:45.352Z,1002.99
2022-12-25T04:29:45.350Z,1003.01
2022-12-25T04:30:45.423Z,1002.98
2022-12-25T04:31:45.329Z,1003.00
2022-12-25T04:32:45.350Z,1003.03
2022-12-25T04:33:45.330Z,1002.97
2022-12-25T04:34:45.295Z,1002.95
2022-12-25T04:35:45.269Z,1002.91
2022-12-25T04:36:45.280Z,1002.89
2022-12-25T04:37:45.317Z,1002.86
2022-12-25T04:38:45.266Z,1002.82
2022-12-25T04:39:45.247Z,1002.87
2022-12-25T04:40:45.246Z,1002.84
2022-12-25T04:41:45.224Z,1002.81
2022-12-25T04:42:45.234Z,1002.81
2022-12-25T04:43:45.243Z,1002.77
2022-12-25T04:44:45.180Z,1002.79
2022-12-25T04:45:45.201Z,1002.79
2022-12-25T04:46:45.235Z,1002.80
2022-12-25T04:47:45.165Z,1002.82
2022-12-25T04:48:45.199Z,1002.76
2022-12-25T04:49:45.159Z,1002.81
2022-12-25T04:50:45.128Z,1002.72
2022-12-25T04:51:45.149Z,1002.75
2022-12-25T04:52:45.102Z,1002.78
2022-12-25T04:53:45.228Z,1002.74
2022-12-25T04:54:45.091Z,1002.74
2022-12-25T04:55:45.087Z,1002.75
2022-12-25T04:56:45.964Z,1002.78
2022-12-25T04:57:45.139Z,1002.77
2022-12-25T04:58:45.049Z,1002.77
2022-12-25T04:59:45.064Z,1002.79
2022-12-25T05:00:45.075Z,1002.81
2022-12-25T05:01:45.116Z,1002.78
2022-12-25T05:02:45.172Z,1002.78
2022-12-25T05:03:45.025Z,1002.76
2022-12-25T05:04:45.029Z,1002.83
2022-12-25T05:05:45.007Z,1002.83
2022-12-25T05:06:44.960Z,1002.81
2022-12-25T05:07:44.988Z,1002.86
2022-12-25T05:08:44.922Z,1002.85
2022-12-25T05:09:44.966Z,1002.84
2022-12-25T05:10:44.946Z,1002.83
2022-12-25T05:11:44.941Z,1002.82
2022-12-25T05:12:44.911Z,1002.84
2022-12-25T05:13:44.906Z,1002.82
2022-12-25T05:14:44.897Z,1002.81
2022-12-25T05:15:44.923Z,1002.87
2022-12-25T05:16:44.881Z,1002.84
2022-12-25T05:17:44.857Z,1002.82
2022-12-25T05:18:44.834Z,1002.80
2022-12-25T05:19:44.869Z,1002.78
2022-12-25T05:20:44.835Z,1002.74
2022-12-25T05:21:44.841Z,1002.77
2022-12-25T05:22:44.806Z,1002.82
2022-12-25T05:23:44.801Z,1002.85
2022-12-25T05:24:44.791Z,1002.90
2022-12-25T05:25:44.776Z,1002.87
2022-12-25T05:26:44.749Z,1002.89
2022-12-25T05:27:48.829Z,1002.89
2022-12-25T05:28:45.725Z,1002.89
2022-12-25T05:29:44.731Z,1002.83
2022-12-25T05:30:44.724Z,1002.89
2022-12-25T05:31:44.803Z,1002.88
2022-12-25T05:32:44.751Z,1002.91
2022-12-25T05:33:44.704Z,1002.87
2022-12-25T05:34:44.693Z,1002.84
2022-12-25T05:35:44.673Z,1002.81
2022-12-25T05:36:44.715Z,1002.83
2022-12-25T05:37:44.662Z,1002.89
2022-12-25T05:38:44.656Z,1002.89
2022-12-25T05:39:44.655Z,1002.94
2022-12-25T05:40:44.651Z,1002.92
2022-12-25T05:41:44.636Z,1002.81
2022-12-25T05:42:44.647Z,1002.85
2022-12-25T05:43:44.605Z,1002.83
2022-12-25T05:44:44.649Z,1002.85
2022-12-25T05:45:44.571Z,1002.79
2022-12-25T05:46:44.600Z,1002.79
2022-12-25T05:47:44.563Z,1002.79
2022-12-25T05:48:44.560Z,1002.77
2022-12-25T05:49:44.536Z,1002.78
2022-12-25T05:50:44.512Z,1002.77
2022-12-25T05:51:44.519Z,1002.83
2022-12-25T05:52:44.512Z,1002.84
2022-12-25T05:53:44.499Z,1002.82
2022-12-25T05:54:44.499Z,1002.80
2022-12-25T05:55:44.447Z,1002.81
2022-12-25T05:56:44.478Z,1002.79
2022-12-25T05:57:44.464Z,1002.82
2022-12-25T05:58:44.458Z,1002.81
2022-12-25T05:59:44.455Z,1002.79
2022-12-25T06:00:44.427Z,1002.81
2022-12-25T06:01:44.476Z,1002.79
2022-12-25T06:02:44.516Z,1002.76
2022-12-25T06:03:44.489Z,1002.70
2022-12-25T06:04:44.411Z,1002.73
2022-12-25T06:05:44.362Z,1002.70
2022-12-25T06:06:44.364Z,1002.74
2022-12-25T06:07:44.351Z,1002.78
2022-12-25T06:08:44.345Z,1002.79
2022-12-25T06:09:44.351Z,1002.87
2022-12-25T06:10:44.315Z,1002.80
2022-12-25T06:11:44.301Z,1002.84
2022-12-25T06:12:44.293Z,1002.84
2022-12-25T06:13:44.292Z,1002.86
2022-12-25T06:14:44.309Z,1002.85
2022-12-25T06:15:44.286Z,1002.82
2022-12-25T06:16:44.352Z,1002.80
2022-12-25T06:17:44.233Z,1002.80
2022-12-25T06:18:44.232Z,1002.77
2022-12-25T06:19:44.234Z,1002.79
2022-12-25T06:20:44.223Z,1002.80
2022-12-25T06:21:44.201Z,1002.81
2022-12-25T06:22:44.230Z,1002.81
2022-12-25T06:23:44.284Z,1002.83
2022-12-25T06:24:44.198Z,1002.86
2022-12-25T06:25:44.176Z,1002.86
2022-12-25T06:26:44.158Z,1002.81
2022-12-25T06:27:44.150Z,1002.84
2022-12-25T06:28:44.206Z,1002.86
2022-12-25T06:29:44.125Z,1002.86
2022-12-25T06:30:44.261Z,1002.84
2022-12-25T06:31:44.274Z,1002.79
2022-12-25T06:32:44.110Z,1002.75
2022-12-25T06:33:44.091Z,1002.73
2022-12-25T06:34:44.118Z,1002.69
2022-12-25T06:35:44.097Z,1002.68
2022-12-25T06:36:44.056Z,1002.63
2022-12-25T06:37:44.034Z,1002.59
2022-12-25T06:38:44.043Z,1002.55
2022-12-25T06:39:44.025Z,1002.57
2022-12-25T06:40:44.059Z,1002.57
2022-12-25T06:41:44.041Z,1002.57
2022-12-25T06:42:43.983Z,1002.51
2022-12-25T06:43:43.984Z,1002.51
2022-12-25T06:44:43.983Z,1002.52
2022-12-25T06:45:43.984Z,1002.47
2022-12-25T06:46:44.011Z,1002.49
2022-12-25T06:47:43.940Z,1002.44
2022-12-25T06:48:43.948Z,1002.49
2022-12-25T06:49:43.914Z,1002.47
2022-12-25T06:50:43.931Z,1002.49
2022-12-25T06:51:43.911Z,1002.53
2022-12-25T06:52:43.898Z,1002.52
2022-12-25T06:53:43.896Z,1002.53
2022-12-25T06:54:43.885Z,1002.52
2022-12-25T06:55:43.853Z,1002.53
2022-12-25T06:56:43.863Z,1002.56
2022-12-25T06:57:43.849Z,1002.58
2022-12-25T06:58:43.832Z,1002.58
2022-12-25T06:59:43.793Z,1002.55
2022-12-25T07:00:43.849Z,1002.53
2022-12-25T07:01:44.032Z,1002.53
2022-12-25T07:02:43.936Z,1002.53
2022-12-25T07:03:43.786Z,1002.52
2022-12-25T07:04:43.783Z,1002.48
2022-12-25T07:05:43.735Z,1002.50
2022-12-25T07:06:43.801Z,1002.55
2022-12-25T07:07:43.742Z,1002.60
2022-12-25T07:08:43.735Z,1002.59
2022-12-25T07:09:43.713Z,1002.60
2022-12-25T07:10:43.746Z,1002.62
2022-12-25T07:11:43.708Z,1002.66
2022-12-25T07:12:43.724Z,1002.65
2022-12-25T07:13:43.680Z,1002.66
2022-12-25T07:14:43.674Z,1002.66
2022-12-25T07:15:43.641Z,1002.67
2022-12-25T07:16:43.762Z,1002.68
2022-12-25T07:17:43.639Z,1002.64
2022-12-25T07:18:43.635Z,1002.66
2022-12-25T07:19:45.486Z,1002.63
2022-12-25T07:20:43.646Z,1002.64
2022-12-25T07:21:43.600Z,1002.61
2022-12-25T07:22:43.610Z,1002.66
2022-12-25T07:23:43.571Z,1002.61
2022-12-25T07:24:43.587Z,1002.64
2022-12-25T07:25:43.541Z,1002.64
2022-12-25T07:26:43.575Z,1002.66
2022-12-25T07:27:43.571Z,1002.62
2022-12-25T07:28:43.518Z,1002.65
2022-12-25T07:29:43.516Z,1002.63
2022-12-25T07:30:43.519Z,1002.65
2022-12-25T07:31:43.565Z,1002.68
2022-12-25T07:32:49.834Z,1002.71
2022-12-25T07:33:44.463Z,1002.73
2022-12-25T07:34:43.463Z,1002.73
2022-12-25T07:35:43.445Z,1002.71
2022-12-25T07:36:43.464Z,1002.67
2022-12-25T07:37:43.453Z,1002.60
2022-12-25T07:38:43.497Z,1002.57
2022-12-25T07:39:43.407Z,1002.59
2022-12-25T07:40:43.403Z,1002.57
2022-12-25T07:41:43.379Z,1002.63
2022-12-25T07:42:43.393Z,1002.63
2022-12-25T07:43:43.381Z,1002.62
2022-12-25T07:44:43.398Z,1002.64
2022-12-25T07:45:43.411Z,1002.63
2022-12-25T07:46:43.343Z,1002.64
2022-12-25T07:47:43.313Z,1002.61
2022-12-25T07:48:43.369Z,1002.60
2022-12-25T07:49:43.290Z,1002.61
2022-12-25T07:50:43.332Z,1002.58
2022-12-25T07:51:43.309Z,1002.53
2022-12-25T07:52:43.923Z,1002.54
2022-12-25T07:53:43.286Z,1002.50
2022-12-25T07:54:43.267Z,1002.47
2022-12-25T07:55:43.270Z,1002.49
2022-12-25T07:56:43.232Z,1002.46
2022-12-25T07:57:43.191Z,1002.48
2022-12-25T07:58:43.233Z,1002.46
2022-12-25T07:59:43.222Z,1002.49
2022-12-25T08:00:43.246Z,1002.41
2022-12-25T08:01:43.358Z,1002.41
2022-12-25T08:02:43.291Z,1002.43
2022-12-25T08:03:43.249Z,1002.40
2022-12-25T08:04:43.206Z,1002.37
2022-12-25T08:05:43.131Z,1002.42
2022-12-25T08:06:43.140Z,1002.44
2022-12-25T08:07:43.130Z,1002.49
2022-12-25T08:08:43.129Z,1002.51
2022-12-25T08:09:43.123Z,1002.53
2022-12-25T08:10:43.087Z,1002.49
2022-12-25T08:11:43.080Z,1002.47
2022-12-25T08:12:43.077Z,1002.46
2022-12-25T08:13:43.092Z,1002.40
2022-12-25T08:14:43.096Z,1002.41
2022-12-25T08:15:43.045Z,1002.43
2022-12-25T08:16:43.123Z,1002.43
2022-12-25T08:17:43.021Z,1002.47
2022-12-25T08:18:43.031Z,1002.45
2022-12-25T08:19:43.057Z,1002.43
2022-12-25T08:20:43.025Z,1002.46
2022-12-25T08:21:42.980Z,1002.44
2022-12-25T08:22:42.975Z,1002.41
2022-12-25T08:23:42.962Z,1002.34
2022-12-25T08:24:42.961Z,1002.35
2022-12-25T08:25:42.966Z,1002.29
2022-12-25T08:26:42.935Z,1002.26
2022-12-25T08:27:42.909Z,1002.28
2022-12-25T08:28:42.929Z,1002.25
2022-12-25T08:29:42.869Z,1002.23
2022-12-25T08:30:43.011Z,1002.18
2022-12-25T08:31:46.467Z,1002.10
2022-12-25T08:32:42.891Z,1002.06
2022-12-25T08:33:42.850Z,1002.01
2022-12-25T08:34:42.874Z,1002.03
2022-12-25T08:35:42.846Z,1001.98
2022-12-25T08:36:42.843Z,1002.00
2022-12-25T08:37:42.850Z,1001.98
2022-12-25T08:38:42.819Z,1001.95
2022-12-25T08:39:42.791Z,1001.95
2022-12-25T08:40:42.793Z,1001.92
2022-12-25T08:41:42.829Z,1001.92
2022-12-25T08:42:42.786Z,1001.95
2022-12-25T08:43:42.767Z,1001.93
2022-12-25T08:44:42.749Z,1001.91
2022-12-25T08:45:42.773Z,1002.00
2022-12-25T08:46:42.842Z,1001.97
2022-12-25T08:47:42.716Z,1001.96
2022-12-25T08:48:42.706Z,1001.92
2022-12-25T08:49:42.697Z,1001.90
2022-12-25T08:50:42.715Z,1001.87
2022-12-25T08:51:42.665Z,1001.82
2022-12-25T08:52:42.666Z,1001.82
2022-12-25T08:53:42.659Z,1001.79
2022-12-25T08:54:42.647Z,1001.78
2022-12-25T08:55:42.621Z,1001.79
2022-12-25T08:56:42.649Z,1001.82
2022-12-25T08:57:42.650Z,1001.78
2022-12-25T08:58:42.609Z,1001.79
2022-12-25T08:59:42.587Z,1001.75
2022-12-25T09:00:42.579Z,1001.76
2022-12-25T09:01:42.689Z,1001.78
2022-12-25T09:02:42.688Z,1001.78
2022-12-25T09:03:42.622Z,1001.73
2022-12-25T09:04:42.538Z,1001.70
2022-12-25T09:05:42.527Z,1001.63
2022-12-25T09:06:42.531Z,1001.63
2022-12-25T09:07:42.498Z,1001.63
2022-12-25T09:08:48.077Z,1001.60
2022-12-25T09:09:43.501Z,1001.54
2022-12-25T09:10:42.480Z,1001.48
2022-12-25T09:11:42.471Z,1001.50
2022-12-25T09:12:42.519Z,1001.50
2022-12-25T09:13:42.465Z,1001.60
2022-12-25T09:14:42.535Z,1001.59
2022-12-25T09:15:42.450Z,1001.66
2022-12-25T09:16:42.460Z,1001.66
2022-12-25T09:17:42.405Z,1001.66
2022-12-25T09:18:42.407Z,1001.67
2022-12-25T09:19:42.393Z,1001.64
2022-12-25T09:20:42.400Z,1001.71
2022-12-25T09:21:42.359Z,1001.78
2022-12-25T09:22:42.365Z,1001.81
2022-12-25T09:23:42.401Z,1001.82
2022-12-25T09:24:42.395Z,1001.94
2022-12-25T09:25:42.343Z,1002.04
2022-12-25T09:26:42.309Z,1002.13
2022-12-25T09:27:42.317Z,1002.17
2022-12-25T09:28:48.417Z,1002.18
2022-12-25T09:29:43.306Z,1002.08
2022-12-25T09:30:42.301Z,1002.09
2022-12-25T09:31:42.256Z,1002.15
2022-12-25T09:32:42.266Z,1002.20
2022-12-25T09:33:42.234Z,1002.19
2022-12-25T09:34:42.246Z,1002.15
2022-12-25T09:35:42.233Z,1002.14
2022-12-25T09:36:42.237Z,1002.15
2022-12-25T09:37:42.204Z,1002.16
2022-12-25T09:38:42.216Z,1002.11
2022-12-25T09:39:46.260Z,1002.13
2022-12-25T09:40:42.206Z,1002.11
2022-12-25T09:41:42.237Z,1002.10
2022-12-25T09:42:42.156Z,1002.10
2022-12-25T09:43:42.145Z,1002.13
2022-12-25T09:44:42.156Z,1002.17
2022-12-25T09:45:42.099Z,1002.20
2022-12-25T09:46:42.243Z,1002.23
2022-12-25T09:47:42.108Z,1002.18
2022-12-25T09:48:42.083Z,1002.18
2022-12-25T09:49:42.497Z,1002.14
2022-12-25T09:50:42.065Z,1002.09
2022-12-25T09:51:42.081Z,1002.04
2022-12-25T09:52:42.079Z,1002.03
2022-12-25T09:53:42.012Z,1002.07
2022-12-25T09:54:42.002Z,1002.12
2022-12-25T09:55:42.005Z,1002.12
2022-12-25T09:56:42.048Z,1002.10
2022-12-25T09:57:42.005Z,1002.12
2022-12-25T09:58:41.980Z,1002.16
2022-12-25T09:59:41.964Z,1002.21
2022-12-25T10:00:41.954Z,1002.21
2022-12-25T10:01:42.016Z,1002.21
2022-12-25T10:02:42.124Z,1002.11
2022-12-25T10:03:42.013Z,1002.10
2022-12-25T10:04:41.901Z,1002.06
2022-12-25T10:05:41.917Z,1002.13
2022-12-25T10:06:41.891Z,1002.15
2022-12-25T10:07:41.926Z,1002.14
2022-12-25T10:08:41.881Z,1002.13
2022-12-25T10:09:41.890Z,1002.16
2022-12-25T10:10:41.861Z,1002.11
2022-12-25T10:11:41.898Z,1002.13
2022-12-25T10:12:41.840Z,1002.10
2022-12-25T10:13:41.888Z,1002.03
2022-12-25T10:14:41.810Z,1002.01
2022-12-25T10:15:45.379Z,1001.95
2022-12-25T10:16:41.859Z,1001.92
2022-12-25T10:17:41.788Z,1001.81
2022-12-25T10:18:41.863Z,1001.86
2022-12-25T10:19:41.764Z,1001.76
2022-12-25T10:20:41.749Z,1001.78
2022-12-25T10:21:41.765Z,1001.73
2022-12-25T10:22:41.731Z,1001.74
2022-12-25T10:23:41.751Z,1001.75
2022-12-25T10:24:41.747Z,1001.75
2022-12-25T10:25:41.703Z,1001.73
2022-12-25T10:26:41.690Z,1001.64
2022-12-25T10:27:41.721Z,1001.59
2022-12-25T10:28:41.736Z,1001.54
2022-12-25T10:29:41.699Z,1001.43
2022-12-25T10:30:41.687Z,1001.44
2022-12-25T10:31:41.757Z,1001.46
2022-12-25T10:32:41.650Z,1001.39
2022-12-25T10:33:41.612Z,1001.33
2022-12-25T10:34:41.625Z,1001.28
2022-12-25T10:35:41.604Z,1001.28
2022-12-25T10:36:41.591Z,1001.30
2022-12-25T10:37:41.583Z,1001.28
2022-12-25T10:38:41.585Z,1001.20
2022-12-25T10:39:46.270Z,1001.14
2022-12-25T10:40:42.589Z,1001.08
2022-12-25T10:41:41.571Z,1001.00
2022-12-25T10:42:41.529Z,1000.99
2022-12-25T10:43:41.523Z,1000.96
2022-12-25T10:44:41.532Z,1000.99
2022-12-25T10:45:41.537Z,1001.01
2022-12-25T10:46:41.513Z,1001.01
2022-12-25T10:47:42.142Z,1000.99
2022-12-25T10:48:41.452Z,1000.99
2022-12-25T10:49:41.550Z,1000.98
2022-12-25T10:50:41.447Z,1001.00
2022-12-25T10:51:41.493Z,1001.06
2022-12-25T10:52:41.438Z,1001.07
2022-12-25T10:53:41.419Z,1001.09
2022-12-25T10:54:41.419Z,1001.03
2022-12-25T10:55:41.419Z,1000.97
2022-12-25T10:56:41.380Z,1000.98
2022-12-25T10:57:41.392Z,1001.03
2022-12-25T10:58:41.362Z,1001.02
2022-12-25T10:59:41.363Z,1000.96
2022-12-25T11:00:41.373Z,1000.93
2022-12-25T11:01:41.383Z,1000.94
2022-12-25T11:02:41.635Z,1000.92
2022-12-25T11:03:41.397Z,1000.86
2022-12-25T11:04:41.293Z,1000.83
2022-12-25T11:05:41.398Z,1000.81
2022-12-25T11:06:41.271Z,1000.77
2022-12-25T11:07:41.291Z,1000.75
2022-12-25T11:08:41.254Z,1000.80
2022-12-25T11:09:41.292Z,1000.78
2022-12-25T11:10:41.288Z,1000.78
2022-12-25T11:11:41.249Z,1000.77
2022-12-25T11:12:41.223Z,1000.75
2022-12-25T11:13:41.241Z,1000.71
2022-12-25T11:14:41.205Z,1000.64
2022-12-25T11:15:41.268Z,1000.56
2022-12-25T11:16:41.293Z,1000.57
2022-12-25T11:17:41.186Z,1000.60
2022-12-25T11:18:41.160Z,1000.58
2022-12-25T11:19:41.195Z,1000.52
2022-12-25T11:20:45.432Z,1000.58
2022-12-25T11:21:42.135Z,1000.60
2022-12-25T11:22:41.117Z,1000.66
2022-12-25T11:23:41.115Z,1000.66
2022-12-25T11:24:41.105Z,1000.62
2022-12-25T11:25:41.120Z,1000.57
2022-12-25T11:26:41.036Z,1000.51
2022-12-25T11:27:41.091Z,1000.44
2022-12-25T11:28:41.059Z,1000.42
2022-12-25T11:29:41.056Z,1000.36
2022-12-25T11:30:41.025Z,1000.36
2022-12-25T11:31:41.182Z,1000.37
2022-12-25T11:32:41.031Z,1000.40
2022-12-25T11:33:41.023Z,1000.45
2022-12-25T11:34:40.993Z,1000.45
2022-12-25T11:35:41.039Z,1000.48
2022-12-25T11:36:41.006Z,1000.49
2022-12-25T11:37:40.980Z,1000.52
2022-12-25T11:38:40.976Z,1000.53
2022-12-25T11:39:41.013Z,1000.49
2022-12-25T11:40:40.926Z,1000.44
2022-12-25T11:41:40.961Z,1000.41
2022-12-25T11:42:40.905Z,1000.44
2022-12-25T11:43:40.904Z,1000.45
2022-12-25T11:44:40.910Z,1000.49
2022-12-25T11:45:40.887Z,1000.48
2022-12-25T11:46:41.030Z,1000.45
2022-12-25T11:47:40.861Z,1000.48
2022-12-25T11:48:40.855Z,1000.48
2022-12-25T11:49:44.684Z,1000.47
2022-12-25T11:50:41.826Z,1000.50
2022-12-25T11:51:40.867Z,1000.53
2022-12-25T11:52:40.820Z,1000.52
2022-12-25T11:53:40.830Z,1000.48
2022-12-25T11:54:40.802Z,1000.43
2022-12-25T11:55:40.784Z,1000.43
2022-12-25T11:56:40.816Z,1000.41
2022-12-25T11:57:40.766Z,1000.33
2022-12-25T11:58:40.737Z,1000.35
2022-12-25T11:59:40.765Z,1000.36
2022-12-25T12:00:40.780Z,1000.38
2022-12-25T12:01:40.810Z,1000.39
2022-12-25T12:02:40.922Z,1000.37
2022-12-25T12:03:40.754Z,1000.31
2022-12-25T12:04:43.189Z,1000.29
2022-12-25T12:05:40.701Z,1000.26